sensor_id;sensor_type;location;lat;lon;timestamp;P1;durP1;ratioP1;P2;durP2;ratioP2
65009;SDS011;51556;50.002;22.014;2023-01-16T00:02:00;1.60;;;0.90;;
65009;SDS011;51556;50.002;22.014;2023-01-16T00:04:26;2.50;;;1.10;;
65009;SDS011;51556;50.002;22.014;2023-01-16T00:06:52;2.00;;;1.00;;
65009;SDS011;51556;50.002;22.014;2023-01-16T00:09:18;2.20;;;1.20;;
65009;SDS011;51556;50.002;22.014;2023-01-16T00:11:45;3.40;;;1.70;;
65009;SDS011;51556;50.002;22.014;2023-01-16T00:14:10;1.50;;;1.10;;
65009;SDS011;51556;50.002;22.014;2023-01-16T00:16:36;3.00;;;1.50;;
65009;SDS011;51556;50.002;22.014;2023-01-16T00:19:02;3.00;;;1.60;;
65009;SDS011;51556;50.002;22.014;2023-01-16T00:21:27;6.80;;;2.80;;
65009;SDS011;51556;50.002;22.014;2023-01-16T00:23:54;3.70;;;2.60;;
65009;SDS011;51556;50.002;22.014;2023-01-16T00:26:20;5.10;;;2.70;;
65009;SDS011;51556;50.002;22.014;2023-01-16T00:28:45;4.40;;;1.60;;
65009;SDS011;51556;50.002;22.014;2023-01-16T00:31:11;2.20;;;1.30;;
65009;SDS011;51556;50.002;22.014;2023-01-16T00:33:36;2.10;;;1.30;;
65009;SDS011;51556;50.002;22.014;2023-01-16T00:36:02;2.10;;;1.40;;
65009;SDS011;51556;50.002;22.014;2023-01-16T00:38:28;2.00;;;1.10;;
65009;SDS011;51556;50.002;22.014;2023-01-16T00:40:53;2.00;;;1.10;;
65009;SDS011;51556;50.002;22.014;2023-01-16T00:43:19;1.10;;;0.90;;
65009;SDS011;51556;50.002;22.014;2023-01-16T00:45:44;1.10;;;0.90;;
65009;SDS011;51556;50.002;22.014;2023-01-16T00:48:10;1.40;;;1.00;;
65009;SDS011;51556;50.002;22.014;2023-01-16T00:50:35;1.40;;;0.90;;
65009;SDS011;51556;50.002;22.014;2023-01-16T00:53:01;2.00;;;1.00;;
65009;SDS011;51556;50.002;22.014;2023-01-16T00:55:26;1.10;;;0.80;;
65009;SDS011;51556;50.002;22.014;2023-01-16T00:57:52;1.10;;;0.70;;
65009;SDS011;51556;50.002;22.014;2023-01-16T01:00:17;1.50;;;1.00;;
65009;SDS011;51556;50.002;22.014;2023-01-16T01:02:46;2.00;;;1.00;;
65009;SDS011;51556;50.002;22.014;2023-01-16T01:05:15;1.60;;;0.90;;
65009;SDS011;51556;50.002;22.014;2023-01-16T01:07:40;1.50;;;0.80;;
65009;SDS011;51556;50.002;22.014;2023-01-16T01:10:06;1.80;;;0.90;;
65009;SDS011;51556;50.002;22.014;2023-01-16T01:12:31;1.50;;;1.00;;
65009;SDS011;51556;50.002;22.014;2023-01-16T01:14:57;1.10;;;0.80;;
65009;SDS011;51556;50.002;22.014;2023-01-16T01:17:22;1.70;;;0.80;;
65009;SDS011;51556;50.002;22.014;2023-01-16T01:19:48;0.80;;;0.70;;
65009;SDS011;51556;50.002;22.014;2023-01-16T01:22:13;1.60;;;0.90;;
65009;SDS011;51556;50.002;22.014;2023-01-16T01:24:40;2.00;;;1.00;;
65009;SDS011;51556;50.002;22.014;2023-01-16T01:27:06;1.20;;;0.90;;
65009;SDS011;51556;50.002;22.014;2023-01-16T01:29:32;1.60;;;0.80;;
65009;SDS011;51556;50.002;22.014;2023-01-16T01:31:57;1.40;;;0.90;;
65009;SDS011;51556;50.002;22.014;2023-01-16T01:34:23;1.10;;;0.80;;
65009;SDS011;51556;50.002;22.014;2023-01-16T01:36:48;0.80;;;0.70;;
65009;SDS011;51556;50.002;22.014;2023-01-16T01:39:13;1.40;;;0.90;;
65009;SDS011;51556;50.002;22.014;2023-01-16T01:41:39;1.80;;;0.90;;
65009;SDS011;51556;50.002;22.014;2023-01-16T01:47:07;2.10;;;1.20;;
65009;SDS011;51556;50.002;22.014;2023-01-16T01:49:33;1.60;;;0.90;;
65009;SDS011;51556;50.002;22.014;2023-01-16T01:52:00;1.30;;;0.70;;
65009;SDS011;51556;50.002;22.014;2023-01-16T01:54:29;1.60;;;1.00;;
65009;SDS011;51556;50.002;22.014;2023-01-16T01:57:02;1.70;;;1.20;;
65009;SDS011;51556;50.002;22.014;2023-01-16T01:59:32;1.50;;;1.10;;
65009;SDS011;51556;50.002;22.014;2023-01-16T02:02:02;1.50;;;1.10;;
65009;SDS011;51556;50.002;22.014;2023-01-16T02:04:32;2.00;;;1.40;;
65009;SDS011;51556;50.002;22.014;2023-01-16T02:07:01;2.00;;;1.20;;
65009;SDS011;51556;50.002;22.014;2023-01-16T02:09:31;2.40;;;1.30;;
65009;SDS011;51556;50.002;22.014;2023-01-16T02:14:38;1.90;;;1.40;;
65009;SDS011;51556;50.002;22.014;2023-01-16T02:17:06;2.40;;;1.50;;
65009;SDS011;51556;50.002;22.014;2023-01-16T02:41:51;1.90;;;1.50;;
65009;SDS011;51556;50.002;22.014;2023-01-16T02:47:02;1.60;;;1.30;;
65009;SDS011;51556;50.002;22.014;2023-01-16T02:52:22;2.40;;;1.80;;
65009;SDS011;51556;50.002;22.014;2023-01-16T02:54:58;2.00;;;1.50;;
65009;SDS011;51556;50.002;22.014;2023-01-16T02:57:36;2.40;;;1.60;;
65009;SDS011;51556;50.002;22.014;2023-01-16T03:00:05;2.50;;;1.40;;
65009;SDS011;51556;50.002;22.014;2023-01-16T03:02:32;3.20;;;1.90;;
65009;SDS011;51556;50.002;22.014;2023-01-16T03:04:58;1.80;;;1.60;;
65009;SDS011;51556;50.002;22.014;2023-01-16T03:12:29;3.30;;;2.10;;
65009;SDS011;51556;50.002;22.014;2023-01-16T03:15:22;2.20;;;1.50;;
65009;SDS011;51556;50.002;22.014;2023-01-16T03:20:34;4.10;;;2.40;;
65009;SDS011;51556;50.002;22.014;2023-01-16T03:23:23;2.70;;;2.10;;
65009;SDS011;51556;50.002;22.014;2023-01-16T03:33:54;5.60;;;3.00;;
65009;SDS011;51556;50.002;22.014;2023-01-16T03:39:30;6.90;;;4.00;;
65009;SDS011;51556;50.002;22.014;2023-01-16T03:42:01;4.10;;;2.30;;
65009;SDS011;51556;50.002;22.014;2023-01-16T03:44:35;4.10;;;2.90;;
65009;SDS011;51556;50.002;22.014;2023-01-16T03:47:05;5.60;;;3.00;;
65009;SDS011;51556;50.002;22.014;2023-01-16T03:49:35;4.20;;;2.40;;
65009;SDS011;51556;50.002;22.014;2023-01-16T03:52:06;5.00;;;2.90;;
65009;SDS011;51556;50.002;22.014;2023-01-16T03:54:38;4.60;;;3.00;;
65009;SDS011;51556;50.002;22.014;2023-01-16T03:59:54;4.30;;;2.40;;
65009;SDS011;51556;50.002;22.014;2023-01-16T04:02:20;3.70;;;2.50;;
65009;SDS011;51556;50.002;22.014;2023-01-16T04:04:54;5.70;;;2.40;;
65009;SDS011;51556;50.002;22.014;2023-01-16T04:09:59;4.10;;;2.50;;
65009;SDS011;51556;50.002;22.014;2023-01-16T04:12:29;3.30;;;2.40;;
65009;SDS011;51556;50.002;22.014;2023-01-16T04:15:02;3.60;;;2.50;;
65009;SDS011;51556;50.002;22.014;2023-01-16T04:17:30;3.50;;;2.30;;
65009;SDS011;51556;50.002;22.014;2023-01-16T04:19:56;4.00;;;2.70;;
65009;SDS011;51556;50.002;22.014;2023-01-16T04:22:23;4.10;;;3.10;;
65009;SDS011;51556;50.002;22.014;2023-01-16T04:24:50;4.50;;;2.70;;
65009;SDS011;51556;50.002;22.014;2023-01-16T04:27:18;3.20;;;2.20;;
65009;SDS011;51556;50.002;22.014;2023-01-16T04:29:44;2.90;;;2.30;;
65009;SDS011;51556;50.002;22.014;2023-01-16T04:32:09;3.50;;;2.30;;
65009;SDS011;51556;50.002;22.014;2023-01-16T04:34:35;3.80;;;2.20;;
65009;SDS011;51556;50.002;22.014;2023-01-16T04:37:00;4.00;;;2.70;;
65009;SDS011;51556;50.002;22.014;2023-01-16T04:39:26;4.70;;;3.00;;
65009;SDS011;51556;50.002;22.014;2023-01-16T04:41:51;5.90;;;3.10;;
65009;SDS011;51556;50.002;22.014;2023-01-16T04:44:17;5.60;;;3.40;;
65009;SDS011;51556;50.002;22.014;2023-01-16T04:46:43;6.60;;;3.00;;
65009;SDS011;51556;50.002;22.014;2023-01-16T04:49:08;6.40;;;3.30;;
65009;SDS011;51556;50.002;22.014;2023-01-16T04:51:34;4.30;;;3.10;;
65009;SDS011;51556;50.002;22.014;2023-01-16T04:54:01;5.40;;;3.10;;
65009;SDS011;51556;50.002;22.014;2023-01-16T04:56:28;3.80;;;2.50;;
65009;SDS011;51556;50.002;22.014;2023-01-16T04:58:54;5.60;;;2.80;;
65009;SDS011;51556;50.002;22.014;2023-01-16T05:01:19;6.20;;;3.00;;
65009;SDS011;51556;50.002;22.014;2023-01-16T05:03:45;3.00;;;2.00;;
65009;SDS011;51556;50.002;22.014;2023-01-16T05:06:11;4.80;;;2.80;;
65009;SDS011;51556;50.002;22.014;2023-01-16T05:08:36;4.90;;;2.40;;
65009;SDS011;51556;50.002;22.014;2023-01-16T05:11:02;5.50;;;2.80;;
65009;SDS011;51556;50.002;22.014;2023-01-16T05:13:28;2.80;;;2.10;;
65009;SDS011;51556;50.002;22.014;2023-01-16T05:15:54;3.60;;;2.50;;
65009;SDS011;51556;50.002;22.014;2023-01-16T05:18:20;3.30;;;2.10;;
65009;SDS011;51556;50.002;22.014;2023-01-16T05:20:46;4.30;;;2.60;;
65009;SDS011;51556;50.002;22.014;2023-01-16T05:23:11;4.40;;;2.40;;
65009;SDS011;51556;50.002;22.014;2023-01-16T05:25:37;6.10;;;2.60;;
65009;SDS011;51556;50.002;22.014;2023-01-16T05:28:03;5.10;;;3.30;;
65009;SDS011;51556;50.002;22.014;2023-01-16T05:30:29;5.70;;;2.90;;
65009;SDS011;51556;50.002;22.014;2023-01-16T05:32:55;6.50;;;3.40;;
65009;SDS011;51556;50.002;22.014;2023-01-16T05:35:20;6.00;;;3.70;;
65009;SDS011;51556;50.002;22.014;2023-01-16T05:37:46;4.10;;;3.00;;
65009;SDS011;51556;50.002;22.014;2023-01-16T05:40:12;5.20;;;3.20;;
65009;SDS011;51556;50.002;22.014;2023-01-16T05:42:38;5.50;;;3.70;;
65009;SDS011;51556;50.002;22.014;2023-01-16T05:45:06;7.20;;;4.10;;
65009;SDS011;51556;50.002;22.014;2023-01-16T05:47:32;6.60;;;4.50;;
65009;SDS011;51556;50.002;22.014;2023-01-16T05:49:57;5.40;;;4.00;;
65009;SDS011;51556;50.002;22.014;2023-01-16T05:52:24;7.40;;;4.00;;
65009;SDS011;51556;50.002;22.014;2023-01-16T05:54:50;6.00;;;4.00;;
65009;SDS011;51556;50.002;22.014;2023-01-16T05:57:16;7.30;;;3.90;;
65009;SDS011;51556;50.002;22.014;2023-01-16T05:59:42;4.30;;;3.40;;
65009;SDS011;51556;50.002;22.014;2023-01-16T06:02:10;5.70;;;3.40;;
65009;SDS011;51556;50.002;22.014;2023-01-16T06:04:36;5.20;;;3.50;;
65009;SDS011;51556;50.002;22.014;2023-01-16T06:07:02;4.20;;;3.10;;
65009;SDS011;51556;50.002;22.014;2023-01-16T06:09:28;5.50;;;3.40;;
65009;SDS011;51556;50.002;22.014;2023-01-16T06:11:53;7.70;;;3.90;;
65009;SDS011;51556;50.002;22.014;2023-01-16T06:14:19;7.10;;;3.70;;
65009;SDS011;51556;50.002;22.014;2023-01-16T06:16:44;7.80;;;4.20;;
65009;SDS011;51556;50.002;22.014;2023-01-16T06:19:10;11.00;;;5.50;;
65009;SDS011;51556;50.002;22.014;2023-01-16T06:21:35;8.60;;;4.70;;
65009;SDS011;51556;50.002;22.014;2023-01-16T06:24:01;7.40;;;3.90;;
65009;SDS011;51556;50.002;22.014;2023-01-16T06:26:26;10.90;;;4.60;;
65009;SDS011;51556;50.002;22.014;2023-01-16T06:28:52;11.90;;;5.10;;
65009;SDS011;51556;50.002;22.014;2023-01-16T06:31:17;9.60;;;4.70;;
65009;SDS011;51556;50.002;22.014;2023-01-16T06:33:42;8.80;;;4.40;;
65009;SDS011;51556;50.002;22.014;2023-01-16T06:36:08;7.50;;;4.00;;
65009;SDS011;51556;50.002;22.014;2023-01-16T06:38:34;5.10;;;3.30;;
65009;SDS011;51556;50.002;22.014;2023-01-16T06:40:59;4.10;;;2.70;;
65009;SDS011;51556;50.002;22.014;2023-01-16T06:43:25;2.80;;;1.80;;
65009;SDS011;51556;50.002;22.014;2023-01-16T06:45:52;5.10;;;3.00;;
65009;SDS011;51556;50.002;22.014;2023-01-16T06:48:17;5.30;;;3.00;;
65009;SDS011;51556;50.002;22.014;2023-01-16T06:50:43;5.30;;;3.30;;
65009;SDS011;51556;50.002;22.014;2023-01-16T06:53:09;4.60;;;3.20;;
65009;SDS011;51556;50.002;22.014;2023-01-16T06:55:35;4.40;;;3.00;;
65009;SDS011;51556;50.002;22.014;2023-01-16T06:58:01;5.50;;;3.00;;
65009;SDS011;51556;50.002;22.014;2023-01-16T07:00:26;7.90;;;4.10;;
65009;SDS011;51556;50.002;22.014;2023-01-16T07:02:53;7.00;;;4.00;;
65009;SDS011;51556;50.002;22.014;2023-01-16T07:05:20;7.40;;;3.90;;
65009;SDS011;51556;50.002;22.014;2023-01-16T07:07:47;7.70;;;4.00;;
65009;SDS011;51556;50.002;22.014;2023-01-16T07:10:13;7.50;;;4.90;;
65009;SDS011;51556;50.002;22.014;2023-01-16T07:12:39;8.50;;;4.80;;
65009;SDS011;51556;50.002;22.014;2023-01-16T07:15:05;8.00;;;4.30;;
65009;SDS011;51556;50.002;22.014;2023-01-16T07:17:50;7.00;;;3.90;;
65009;SDS011;51556;50.002;22.014;2023-01-16T07:20:33;6.10;;;4.10;;
65009;SDS011;51556;50.002;22.014;2023-01-16T07:23:22;7.10;;;4.00;;
65009;SDS011;51556;50.002;22.014;2023-01-16T07:25:50;6.70;;;4.30;;
65009;SDS011;51556;50.002;22.014;2023-01-16T07:28:17;9.10;;;4.50;;
65009;SDS011;51556;50.002;22.014;2023-01-16T07:30:43;7.00;;;4.30;;
65009;SDS011;51556;50.002;22.014;2023-01-16T07:33:10;4.90;;;3.40;;
65009;SDS011;51556;50.002;22.014;2023-01-16T07:35:36;7.10;;;4.10;;
65009;SDS011;51556;50.002;22.014;2023-01-16T07:38:02;6.70;;;3.70;;
65009;SDS011;51556;50.002;22.014;2023-01-16T07:40:29;8.90;;;4.30;;
65009;SDS011;51556;50.002;22.014;2023-01-16T07:42:54;6.00;;;4.00;;
65009;SDS011;51556;50.002;22.014;2023-01-16T07:45:20;5.10;;;3.30;;
65009;SDS011;51556;50.002;22.014;2023-01-16T07:47:45;6.30;;;3.50;;
65009;SDS011;51556;50.002;22.014;2023-01-16T07:50:12;5.40;;;3.20;;
65009;SDS011;51556;50.002;22.014;2023-01-16T07:52:38;6.90;;;4.00;;
65009;SDS011;51556;50.002;22.014;2023-01-16T07:55:03;6.40;;;3.80;;
65009;SDS011;51556;50.002;22.014;2023-01-16T07:57:29;6.10;;;3.90;;
65009;SDS011;51556;50.002;22.014;2023-01-16T07:59:54;7.80;;;3.60;;
65009;SDS011;51556;50.002;22.014;2023-01-16T08:02:20;7.00;;;3.90;;
65009;SDS011;51556;50.002;22.014;2023-01-16T08:04:46;11.70;;;5.90;;
65009;SDS011;51556;50.002;22.014;2023-01-16T08:07:11;9.80;;;5.10;;
65009;SDS011;51556;50.002;22.014;2023-01-16T08:09:37;9.60;;;4.50;;
65009;SDS011;51556;50.002;22.014;2023-01-16T08:12:02;9.10;;;4.80;;
65009;SDS011;51556;50.002;22.014;2023-01-16T08:14:28;7.20;;;4.40;;
65009;SDS011;51556;50.002;22.014;2023-01-16T08:16:53;6.20;;;3.80;;
65009;SDS011;51556;50.002;22.014;2023-01-16T08:19:19;7.40;;;4.40;;
65009;SDS011;51556;50.002;22.014;2023-01-16T08:21:45;7.90;;;4.40;;
65009;SDS011;51556;50.002;22.014;2023-01-16T08:24:10;21.60;;;6.60;;
65009;SDS011;51556;50.002;22.014;2023-01-16T08:26:38;13.80;;;5.20;;
65009;SDS011;51556;50.002;22.014;2023-01-16T08:29:03;7.90;;;4.00;;
65009;SDS011;51556;50.002;22.014;2023-01-16T08:31:29;9.00;;;4.40;;
65009;SDS011;51556;50.002;22.014;2023-01-16T08:33:55;9.50;;;6.30;;
65009;SDS011;51556;50.002;22.014;2023-01-16T08:36:21;9.10;;;5.40;;
65009;SDS011;51556;50.002;22.014;2023-01-16T08:38:47;8.00;;;4.30;;
65009;SDS011;51556;50.002;22.014;2023-01-16T08:41:13;7.20;;;3.80;;
65009;SDS011;51556;50.002;22.014;2023-01-16T08:43:57;4.70;;;2.60;;
65009;SDS011;51556;50.002;22.014;2023-01-16T08:46:41;5.00;;;3.20;;
65009;SDS011;51556;50.002;22.014;2023-01-16T08:49:26;8.10;;;3.50;;
65009;SDS011;51556;50.002;22.014;2023-01-16T08:52:10;7.40;;;3.90;;
65009;SDS011;51556;50.002;22.014;2023-01-16T08:54:36;6.80;;;4.00;;
65009;SDS011;51556;50.002;22.014;2023-01-16T08:57:02;8.40;;;3.70;;
65009;SDS011;51556;50.002;22.014;2023-01-16T08:59:27;6.00;;;3.80;;
65009;SDS011;51556;50.002;22.014;2023-01-16T09:01:58;7.70;;;4.30;;
65009;SDS011;51556;50.002;22.014;2023-01-16T09:04:25;6.00;;;4.10;;
65009;SDS011;51556;50.002;22.014;2023-01-16T09:06:51;5.80;;;3.60;;
65009;SDS011;51556;50.002;22.014;2023-01-16T09:09:18;9.10;;;4.70;;
65009;SDS011;51556;50.002;22.014;2023-01-16T09:11:44;7.20;;;3.80;;
65009;SDS011;51556;50.002;22.014;2023-01-16T09:14:28;8.20;;;4.00;;
65009;SDS011;51556;50.002;22.014;2023-01-16T09:16:54;12.70;;;5.70;;
65009;SDS011;51556;50.002;22.014;2023-01-16T09:19:19;11.80;;;6.30;;
65009;SDS011;51556;50.002;22.014;2023-01-16T09:21:45;8.60;;;5.20;;
65009;SDS011;51556;50.002;22.014;2023-01-16T09:24:10;8.50;;;5.10;;
65009;SDS011;51556;50.002;22.014;2023-01-16T09:26:35;6.90;;;4.80;;
65009;SDS011;51556;50.002;22.014;2023-01-16T09:29:01;8.50;;;5.10;;
65009;SDS011;51556;50.002;22.014;2023-01-16T09:31:26;12.80;;;8.30;;
65009;SDS011;51556;50.002;22.014;2023-01-16T09:33:52;18.60;;;12.70;;
65009;SDS011;51556;50.002;22.014;2023-01-16T09:36:19;15.90;;;12.00;;
65009;SDS011;51556;50.002;22.014;2023-01-16T09:38:45;8.40;;;4.40;;
65009;SDS011;51556;50.002;22.014;2023-01-16T09:41:14;6.60;;;3.90;;
65009;SDS011;51556;50.002;22.014;2023-01-16T09:44:00;7.00;;;3.90;;
65009;SDS011;51556;50.002;22.014;2023-01-16T09:46:27;6.80;;;4.10;;
65009;SDS011;51556;50.002;22.014;2023-01-16T09:52:01;8.90;;;5.00;;
65009;SDS011;51556;50.002;22.014;2023-01-16T09:54:52;6.30;;;3.50;;
65009;SDS011;51556;50.002;22.014;2023-01-16T09:57:40;10.40;;;5.80;;
65009;SDS011;51556;50.002;22.014;2023-01-16T10:00:29;8.10;;;4.80;;
65009;SDS011;51556;50.002;22.014;2023-01-16T10:02:59;14.30;;;8.00;;
65009;SDS011;51556;50.002;22.014;2023-01-16T10:05:27;13.60;;;6.20;;
65009;SDS011;51556;50.002;22.014;2023-01-16T10:13:19;8.30;;;4.20;;
65009;SDS011;51556;50.002;22.014;2023-01-16T10:27:40;7.90;;;3.80;;
65009;SDS011;51556;50.002;22.014;2023-01-16T10:30:29;6.60;;;3.80;;
65009;SDS011;51556;50.002;22.014;2023-01-16T10:35:44;11.20;;;4.20;;
65009;SDS011;51556;50.002;22.014;2023-01-16T10:38:23;6.70;;;3.50;;
65009;SDS011;51556;50.002;22.014;2023-01-16T10:41:05;8.10;;;3.70;;
65009;SDS011;51556;50.002;22.014;2023-01-16T10:43:58;7.90;;;3.90;;
65009;SDS011;51556;50.002;22.014;2023-01-16T10:46:44;8.70;;;4.20;;
65009;SDS011;51556;50.002;22.014;2023-01-16T10:49:28;6.70;;;3.70;;
65009;SDS011;51556;50.002;22.014;2023-01-16T10:51:58;6.50;;;3.60;;
65009;SDS011;51556;50.002;22.014;2023-01-16T10:54:27;8.20;;;4.00;;
65009;SDS011;51556;50.002;22.014;2023-01-16T10:56:52;8.10;;;4.00;;
65009;SDS011;51556;50.002;22.014;2023-01-16T10:59:18;6.50;;;3.10;;
65009;SDS011;51556;50.002;22.014;2023-01-16T11:01:46;7.00;;;3.70;;
65009;SDS011;51556;50.002;22.014;2023-01-16T11:04:16;7.60;;;4.20;;
65009;SDS011;51556;50.002;22.014;2023-01-16T11:06:44;6.70;;;3.70;;
65009;SDS011;51556;50.002;22.014;2023-01-16T11:11:39;3.20;;;2.30;;
65009;SDS011;51556;50.002;22.014;2023-01-16T11:14:24;8.00;;;3.80;;
65009;SDS011;51556;50.002;22.014;2023-01-16T11:17:29;7.20;;;4.10;;
65009;SDS011;51556;50.002;22.014;2023-01-16T11:20:24;8.60;;;4.20;;
65009;SDS011;51556;50.002;22.014;2023-01-16T11:23:12;10.30;;;4.50;;
65009;SDS011;51556;50.002;22.014;2023-01-16T11:25:40;10.50;;;5.10;;
65009;SDS011;51556;50.002;22.014;2023-01-16T11:28:07;9.40;;;4.70;;
65009;SDS011;51556;50.002;22.014;2023-01-16T11:30:38;7.90;;;3.80;;
65009;SDS011;51556;50.002;22.014;2023-01-16T11:33:27;5.30;;;2.90;;
65009;SDS011;51556;50.002;22.014;2023-01-16T11:36:01;10.70;;;5.00;;
65009;SDS011;51556;50.002;22.014;2023-01-16T11:38:29;5.90;;;3.30;;
65009;SDS011;51556;50.002;22.014;2023-01-16T11:41:00;6.80;;;3.50;;
65009;SDS011;51556;50.002;22.014;2023-01-16T11:43:31;5.60;;;2.80;;
65009;SDS011;51556;50.002;22.014;2023-01-16T11:46:20;5.10;;;3.20;;
65009;SDS011;51556;50.002;22.014;2023-01-16T11:49:02;4.30;;;2.80;;
65009;SDS011;51556;50.002;22.014;2023-01-16T11:51:30;4.30;;;2.60;;
65009;SDS011;51556;50.002;22.014;2023-01-16T11:53:58;7.20;;;3.30;;
65009;SDS011;51556;50.002;22.014;2023-01-16T12:04:51;6.50;;;2.90;;
65009;SDS011;51556;50.002;22.014;2023-01-16T12:10:42;5.30;;;2.50;;
65009;SDS011;51556;50.002;22.014;2023-01-16T12:13:13;5.50;;;3.00;;
65009;SDS011;51556;50.002;22.014;2023-01-16T12:16:20;4.60;;;2.90;;
65009;SDS011;51556;50.002;22.014;2023-01-16T12:19:12;4.70;;;2.80;;
65009;SDS011;51556;50.002;22.014;2023-01-16T12:30:23;3.20;;;2.30;;
65009;SDS011;51556;50.002;22.014;2023-01-16T12:33:11;3.80;;;2.50;;
65009;SDS011;51556;50.002;22.014;2023-01-16T12:38:47;4.40;;;2.70;;
65009;SDS011;51556;50.002;22.014;2023-01-16T12:41:35;4.40;;;2.30;;
65009;SDS011;51556;50.002;22.014;2023-01-16T12:47:37;3.30;;;2.40;;
65009;SDS011;51556;50.002;22.014;2023-01-16T12:50:27;4.00;;;2.10;;
65009;SDS011;51556;50.002;22.014;2023-01-16T12:55:50;4.60;;;3.20;;
65009;SDS011;51556;50.002;22.014;2023-01-16T12:58:30;6.50;;;3.60;;
65009;SDS011;51556;50.002;22.014;2023-01-16T13:03:43;17.60;;;9.70;;
65009;SDS011;51556;50.002;22.014;2023-01-16T13:06:17;6.60;;;3.60;;
65009;SDS011;51556;50.002;22.014;2023-01-16T13:09:00;7.00;;;3.90;;
65009;SDS011;51556;50.002;22.014;2023-01-16T13:11:36;7.20;;;3.80;;
65009;SDS011;51556;50.002;22.014;2023-01-16T13:14:27;9.00;;;3.80;;
65009;SDS011;51556;50.002;22.014;2023-01-16T13:16:57;6.70;;;3.40;;
65009;SDS011;51556;50.002;22.014;2023-01-16T13:19:31;5.10;;;2.80;;
65009;SDS011;51556;50.002;22.014;2023-01-16T13:22:04;6.70;;;3.70;;
65009;SDS011;51556;50.002;22.014;2023-01-16T13:27:47;3.10;;;2.30;;
65009;SDS011;51556;50.002;22.014;2023-01-16T13:30:19;5.10;;;3.30;;
65009;SDS011;51556;50.002;22.014;2023-01-16T13:41:15;5.50;;;3.50;;
65009;SDS011;51556;50.002;22.014;2023-01-16T13:46:48;7.80;;;4.40;;
65009;SDS011;51556;50.002;22.014;2023-01-16T13:49:15;8.20;;;4.40;;
65009;SDS011;51556;50.002;22.014;2023-01-16T13:51:53;6.80;;;3.90;;
65009;SDS011;51556;50.002;22.014;2023-01-16T13:54:21;5.70;;;3.10;;
65009;SDS011;51556;50.002;22.014;2023-01-16T13:56:56;6.60;;;4.00;;
65009;SDS011;51556;50.002;22.014;2023-01-16T13:59:33;8.40;;;4.20;;
65009;SDS011;51556;50.002;22.014;2023-01-16T14:10:46;7.00;;;4.10;;
65009;SDS011;51556;50.002;22.014;2023-01-16T14:16:41;8.20;;;4.30;;
65009;SDS011;51556;50.002;22.014;2023-01-16T14:24:02;10.00;;;4.60;;
65009;SDS011;51556;50.002;22.014;2023-01-16T14:28:59;14.20;;;6.70;;
65009;SDS011;51556;50.002;22.014;2023-01-16T14:31:34;12.20;;;6.90;;
65009;SDS011;51556;50.002;22.014;2023-01-16T14:34:04;13.00;;;7.00;;
65009;SDS011;51556;50.002;22.014;2023-01-16T14:36:30;11.80;;;6.50;;
65009;SDS011;51556;50.002;22.014;2023-01-16T14:38:58;12.20;;;7.80;;
65009;SDS011;51556;50.002;22.014;2023-01-16T14:41:26;14.90;;;9.40;;
65009;SDS011;51556;50.002;22.014;2023-01-16T14:44:18;19.10;;;10.90;;
65009;SDS011;51556;50.002;22.014;2023-01-16T14:55:57;32.10;;;17.30;;
65009;SDS011;51556;50.002;22.014;2023-01-16T15:01:21;52.70;;;25.20;;
65009;SDS011;51556;50.002;22.014;2023-01-16T15:04:12;55.00;;;28.00;;
65009;SDS011;51556;50.002;22.014;2023-01-16T15:06:42;65.80;;;29.90;;
65009;SDS011;51556;50.002;22.014;2023-01-16T15:09:13;74.80;;;35.60;;
65009;SDS011;51556;50.002;22.014;2023-01-16T15:14:22;54.10;;;26.00;;
65009;SDS011;51556;50.002;22.014;2023-01-16T15:16:53;55.90;;;27.80;;
65009;SDS011;51556;50.002;22.014;2023-01-16T15:20:06;52.50;;;26.60;;
65009;SDS011;51556;50.002;22.014;2023-01-16T15:22:59;44.20;;;22.60;;
65009;SDS011;51556;50.002;22.014;2023-01-16T15:28:12;56.40;;;26.30;;
65009;SDS011;51556;50.002;22.014;2023-01-16T15:30:39;42.90;;;20.90;;
65009;SDS011;51556;50.002;22.014;2023-01-16T15:33:10;37.30;;;19.00;;
65009;SDS011;51556;50.002;22.014;2023-01-16T15:36:19;31.20;;;16.50;;
65009;SDS011;51556;50.002;22.014;2023-01-16T15:41:42;32.90;;;16.60;;
65009;SDS011;51556;50.002;22.014;2023-01-16T15:44:28;29.90;;;16.50;;
65009;SDS011;51556;50.002;22.014;2023-01-16T15:52:43;22.50;;;12.40;;
65009;SDS011;51556;50.002;22.014;2023-01-16T15:55:15;19.60;;;11.00;;
65009;SDS011;51556;50.002;22.014;2023-01-16T15:57:48;16.20;;;9.20;;
65009;SDS011;51556;50.002;22.014;2023-01-16T16:02:57;18.10;;;9.80;;
65009;SDS011;51556;50.002;22.014;2023-01-16T16:05:29;22.10;;;9.90;;
65009;SDS011;51556;50.002;22.014;2023-01-16T16:07:55;16.30;;;9.00;;
65009;SDS011;51556;50.002;22.014;2023-01-16T16:10:22;14.90;;;7.90;;
65009;SDS011;51556;50.002;22.014;2023-01-16T16:13:09;13.80;;;7.70;;
65009;SDS011;51556;50.002;22.014;2023-01-16T16:15:51;13.50;;;7.30;;
65009;SDS011;51556;50.002;22.014;2023-01-16T16:18:38;13.60;;;7.50;;
65009;SDS011;51556;50.002;22.014;2023-01-16T16:21:04;14.40;;;8.20;;
65009;SDS011;51556;50.002;22.014;2023-01-16T16:23:34;12.50;;;7.60;;
65009;SDS011;51556;50.002;22.014;2023-01-16T16:26:03;11.80;;;6.80;;
65009;SDS011;51556;50.002;22.014;2023-01-16T16:34:32;18.20;;;9.30;;
65009;SDS011;51556;50.002;22.014;2023-01-16T16:36:45;15.70;;;8.30;;
65009;SDS011;51556;50.002;22.014;2023-01-16T16:39:59;13.20;;;7.00;;
65009;SDS011;51556;50.002;22.014;2023-01-16T16:42:08;12.20;;;5.70;;
65009;SDS011;51556;50.002;22.014;2023-01-16T16:47:33;14.10;;;6.90;;
65009;SDS011;51556;50.002;22.014;2023-01-16T16:53:22;14.90;;;6.60;;
65009;SDS011;51556;50.002;22.014;2023-01-16T16:56:05;11.40;;;5.50;;
65009;SDS011;51556;50.002;22.014;2023-01-16T16:58:34;10.40;;;5.20;;
65009;SDS011;51556;50.002;22.014;2023-01-16T17:01:06;9.10;;;5.00;;
65009;SDS011;51556;50.002;22.014;2023-01-16T17:03:36;12.50;;;6.00;;
65009;SDS011;51556;50.002;22.014;2023-01-16T17:06:01;14.10;;;6.40;;
65009;SDS011;51556;50.002;22.014;2023-01-16T17:08:27;9.60;;;5.30;;
65009;SDS011;51556;50.002;22.014;2023-01-16T17:10:53;10.40;;;5.20;;
65009;SDS011;51556;50.002;22.014;2023-01-16T17:13:20;13.40;;;6.50;;
65009;SDS011;51556;50.002;22.014;2023-01-16T17:15:47;11.70;;;6.80;;
65009;SDS011;51556;50.002;22.014;2023-01-16T17:18:15;11.40;;;5.90;;
65009;SDS011;51556;50.002;22.014;2023-01-16T17:20:42;12.60;;;6.50;;
65009;SDS011;51556;50.002;22.014;2023-01-16T17:23:12;13.40;;;6.60;;
65009;SDS011;51556;50.002;22.014;2023-01-16T17:25:39;14.30;;;6.60;;
65009;SDS011;51556;50.002;22.014;2023-01-16T17:28:07;11.30;;;5.90;;
65009;SDS011;51556;50.002;22.014;2023-01-16T17:30:32;11.20;;;6.50;;
65009;SDS011;51556;50.002;22.014;2023-01-16T17:32:59;12.00;;;5.80;;
65009;SDS011;51556;50.002;22.014;2023-01-16T17:35:35;14.30;;;7.50;;
65009;SDS011;51556;50.002;22.014;2023-01-16T17:38:04;12.40;;;7.50;;
65009;SDS011;51556;50.002;22.014;2023-01-16T17:40:36;11.10;;;6.40;;
65009;SDS011;51556;50.002;22.014;2023-01-16T17:43:02;15.20;;;10.20;;
65009;SDS011;51556;50.002;22.014;2023-01-16T17:45:47;10.70;;;7.70;;
65009;SDS011;51556;50.002;22.014;2023-01-16T17:48:22;11.40;;;6.10;;
65009;SDS011;51556;50.002;22.014;2023-01-16T17:50:48;12.80;;;7.00;;
65009;SDS011;51556;50.002;22.014;2023-01-16T17:53:16;12.10;;;7.80;;
65009;SDS011;51556;50.002;22.014;2023-01-16T17:55:44;10.70;;;6.40;;
65009;SDS011;51556;50.002;22.014;2023-01-16T17:58:20;11.90;;;7.90;;
65009;SDS011;51556;50.002;22.014;2023-01-16T18:01:18;14.00;;;7.80;;